createdAt,value
2019-05-20T00:01:10.457Z,97.60
2019-05-20T00:03:37.997Z,97.60
2019-05-20T00:06:05.591Z,97.80
2019-05-20T00:08:33.193Z,97.60
2019-05-20T00:11:00.777Z,97.80
2019-05-20T00:13:28.591Z,97.50
2019-05-20T00:15:56.435Z,97.40
2019-05-20T00:18:23.997Z,97.70
2019-05-20T00:20:51.528Z,97.60
2019-05-20T00:23:19.141Z,97.80
2019-05-20T00:25:46.683Z,97.70
2019-05-20T00:28:14.248Z,98.00
2019-05-20T00:30:42.096Z,97.70
2019-05-20T00:33:09.688Z,98.00
2019-05-20T00:35:37.228Z,98.30
2019-05-20T00:38:04.797Z,97.80
2019-05-20T00:40:32.337Z,97.40
2019-05-20T00:42:59.904Z,97.20
2019-05-20T00:45:27.494Z,97.40
2019-05-20T00:47:55.081Z,97.10
2019-05-20T00:50:22.617Z,97.10
2019-05-20T00:52:50.268Z,96.80
2019-05-20T00:55:19.432Z,96.80
2019-05-20T00:57:47.309Z,96.60
2019-05-20T01:00:14.883Z,96.80
2019-05-20T01:02:56.053Z,97.00
2019-05-20T01:05:12.347Z,97.00
2019-05-20T01:07:39.908Z,96.80
2019-05-20T01:10:07.449Z,96.80
2019-05-20T01:12:35.016Z,96.90
2019-05-20T01:15:02.560Z,96.60
2019-05-20T01:17:30.117Z,96.90
2019-05-20T01:19:57.709Z,96.90
2019-05-20T01:22:25.305Z,96.70
2019-05-20T01:24:52.841Z,96.70
2019-05-20T01:27:20.410Z,96.40
2019-05-20T01:29:47.949Z,96.60
2019-05-20T01:32:15.485Z,96.70
2019-05-20T01:34:43.072Z,96.90
2019-05-20T01:37:10.905Z,96.60
2019-05-20T01:39:38.464Z,96.60
2019-05-20T01:42:06.006Z,96.60
2019-05-20T01:44:33.569Z,96.70
2019-05-20T01:47:01.119Z,97.00
2019-05-20T01:49:29.012Z,96.70
2019-05-20T01:51:56.540Z,96.80
2019-05-20T01:54:24.113Z,96.70
2019-05-20T01:56:51.717Z,97.00
2019-05-20T01:59:19.297Z,96.60
2019-05-20T02:01:46.840Z,96.60
2019-05-20T02:04:14.409Z,96.60
2019-05-20T02:06:41.948Z,96.50
2019-05-20T02:09:09.520Z,96.30
2019-05-20T02:11:37.095Z,96.50
2019-05-20T02:14:06.354Z,96.20
2019-05-20T02:16:33.872Z,96.20
2019-05-20T02:19:01.446Z,96.10
2019-05-20T02:21:29.253Z,96.40
2019-05-20T02:23:57.101Z,96.30
2019-05-20T02:26:24.642Z,96.10
2019-05-20T02:28:52.208Z,96.10
2019-05-20T02:31:19.754Z,96.30
2019-05-20T02:33:52.266Z,96.40
2019-05-20T02:36:16.654Z,96.70
2019-05-20T02:38:44.232Z,96.40
2019-05-20T02:41:11.773Z,96.50
2019-05-20T02:43:39.353Z,96.90
2019-05-20T02:46:06.883Z,97.30
2019-05-20T02:48:34.745Z,97.80
2019-05-20T02:51:02.310Z,97.70
2019-05-20T02:53:29.841Z,97.90
2019-05-20T02:55:57.405Z,97.60
2019-05-20T02:58:25.005Z,97.30
2019-05-20T03:00:52.851Z,97.10
2019-05-20T03:03:20.381Z,96.60
2019-05-20T03:05:47.979Z,96.50
2019-05-20T03:08:15.566Z,96.70
2019-05-20T03:10:43.130Z,96.80
2019-05-20T03:13:10.662Z,96.80
2019-05-20T03:15:57.638Z,96.40
2019-05-20T03:18:25.174Z,96.50
2019-05-20T03:20:52.763Z,96.40
2019-05-20T03:23:20.284Z,96.50
2019-05-20T03:25:47.840Z,96.40
2019-05-20T03:28:15.388Z,96.50
2019-05-20T03:30:43.120Z,96.40
2019-05-20T03:33:10.666Z,96.30
2019-05-20T03:35:38.377Z,96.30
2019-05-20T03:38:05.926Z,96.30
2019-05-20T03:40:33.489Z,96.50
2019-05-20T03:43:01.034Z,96.50
2019-05-20T03:45:28.593Z,96.90
2019-05-20T03:47:56.162Z,97.20
2019-05-20T03:50:23.727Z,97.40
2019-05-20T03:52:51.264Z,97.20
2019-05-20T03:55:18.846Z,97.20
2019-05-20T03:57:46.689Z,97.20
2019-05-20T04:00:14.621Z,96.90
2019-05-20T04:02:42.161Z,97.00
2019-05-20T04:05:09.731Z,96.90
2019-05-20T04:07:37.265Z,96.90
2019-05-20T04:10:05.404Z,96.90
2019-05-20T04:12:32.942Z,96.90
2019-05-20T04:15:00.504Z,96.80
2019-05-20T04:17:28.045Z,96.90
2019-05-20T04:19:55.601Z,97.10
2019-05-20T04:22:23.138Z,96.90
2019-05-20T04:24:50.717Z,96.90
2019-05-20T04:27:18.258Z,96.90
2019-05-20T04:29:46.096Z,97.40
2019-05-20T04:32:13.657Z,97.60
2019-05-20T04:34:41.232Z,97.80
2019-05-20T04:37:08.801Z,97.50
2019-05-20T04:39:36.336Z,97.20
2019-05-20T04:42:06.481Z,97.30
2019-05-20T04:44:33.511Z,97.50
2019-05-20T04:47:01.609Z,97.40
2019-05-20T04:49:29.148Z,97.50
2019-05-20T04:51:56.704Z,97.30
2019-05-20T04:54:24.243Z,97.20
2019-05-20T04:56:51.809Z,97.50
2019-05-20T04:59:19.362Z,97.50
2019-05-20T05:01:46.909Z,97.50
2019-05-20T05:04:14.443Z,97.40
2019-05-20T05:06:42.012Z,97.30
2019-05-20T05:09:09.542Z,97.10
2019-05-20T05:11:37.170Z,97.50
2019-05-20T05:14:04.741Z,97.50
2019-05-20T05:16:32.297Z,97.70
2019-05-20T05:18:59.836Z,97.50
2019-05-20T05:21:27.397Z,97.70
2019-05-20T05:23:59.175Z,97.50
2019-05-20T05:26:24.528Z,97.40
2019-05-20T05:28:52.068Z,97.80
2019-05-20T05:31:19.605Z,97.80
2019-05-20T05:33:47.172Z,97.80
2019-05-20T05:36:14.709Z,98.30
2019-05-20T05:38:42.272Z,97.60
2019-05-20T05:41:09.813Z,97.50
2019-05-20T05:43:37.373Z,97.60
2019-05-20T05:46:04.906Z,97.70
2019-05-20T05:48:32.472Z,97.90
2019-05-20T05:51:00.000Z,98.00
2019-05-20T05:53:27.565Z,98.20
2019-05-20T05:55:55.102Z,98.30
2019-05-20T05:58:22.672Z,98.30
2019-05-20T06:00:50.201Z,98.10
2019-05-20T06:03:17.760Z,98.10
2019-05-20T06:05:45.297Z,98.00
2019-05-20T06:08:13.012Z,98.10
2019-05-20T06:10:40.681Z,98.30
2019-05-20T06:13:08.248Z,98.00
2019-05-20T06:15:35.783Z,98.00
2019-05-20T06:18:03.355Z,97.90
2019-05-20T06:20:30.942Z,97.90
2019-05-20T06:22:58.918Z,98.00
2019-05-20T06:25:26.466Z,99.00
2019-05-20T06:27:54.281Z,98.10
2019-05-20T06:30:23.445Z,97.60
2019-05-20T06:32:51.344Z,98.50
2019-05-20T06:35:18.883Z,98.60
2019-05-20T06:38:00.297Z,98.90
2019-05-20T06:40:27.834Z,98.70
2019-05-20T06:42:55.712Z,98.50
2019-05-20T06:45:23.252Z,98.70
2019-05-20T06:47:50.889Z,98.70
2019-05-20T06:50:18.505Z,98.90
2019-05-20T06:52:46.057Z,98.70
2019-05-20T06:55:13.595Z,98.80
2019-05-20T06:57:41.157Z,99.00
2019-05-20T07:00:08.969Z,99.00
2019-05-20T07:02:36.538Z,99.20
2019-05-20T07:05:05.062Z,98.80
2019-05-20T07:07:32.773Z,99.00
2019-05-20T07:10:00.308Z,99.20
2019-05-20T07:12:40.603Z,99.00
2019-05-20T07:14:57.469Z,98.70
2019-05-20T07:17:25.044Z,98.90
2019-05-20T07:19:52.572Z,98.90
2019-05-20T07:22:20.112Z,98.10
2019-05-20T07:24:47.683Z,98.50
2019-05-20T07:27:15.213Z,98.90
2019-05-20T07:29:42.785Z,99.20
2019-05-20T07:32:10.332Z,98.60
2019-05-20T07:34:37.885Z,98.50
2019-05-20T07:37:05.427Z,98.70
2019-05-20T07:39:33.031Z,98.60
2019-05-20T07:42:00.706Z,98.40
2019-05-20T07:44:28.271Z,98.70
2019-05-20T07:46:55.813Z,98.90
2019-05-20T07:49:23.715Z,99.00
2019-05-20T07:51:51.244Z,99.20
2019-05-20T07:54:19.137Z,99.00
2019-05-20T07:56:46.680Z,99.30
2019-05-20T07:59:14.725Z,99.40
2019-05-20T08:01:42.265Z,99.50
2019-05-20T08:04:09.876Z,99.20
2019-05-20T08:06:37.586Z,99.20
2019-05-20T08:09:06.430Z,99.40
2019-05-20T08:11:33.972Z,99.50
2019-05-20T08:14:02.054Z,99.70
2019-05-20T08:16:29.941Z,99.70
2019-05-20T08:18:57.805Z,99.80
2019-05-20T08:21:25.678Z,99.80
2019-05-20T08:23:53.237Z,99.80
2019-05-20T08:26:20.777Z,99.90
2019-05-20T08:28:48.354Z,99.90
2019-05-20T08:31:15.885Z,99.60
2019-05-20T08:33:43.449Z,99.90
2019-05-20T08:36:10.986Z,99.90
2019-05-20T08:38:38.553Z,99.90
2019-05-20T08:41:06.090Z,99.90
2019-05-20T08:43:33.663Z,98.80
2019-05-20T08:46:01.204Z,98.80
2019-05-20T08:48:28.950Z,98.90
2019-05-20T08:50:56.793Z,99.10
2019-05-20T08:53:24.366Z,98.70
2019-05-20T08:55:51.904Z,98.80
2019-05-20T08:58:19.497Z,99.30
2019-05-20T09:00:47.346Z,99.20
2019-05-20T09:03:14.892Z,99.00
2019-05-20T09:05:42.778Z,98.90
2019-05-20T09:08:10.318Z,99.20
2019-05-20T09:10:39.683Z,99.30
2019-05-20T09:13:07.144Z,98.80
2019-05-20T09:15:34.702Z,98.80
2019-05-20T09:18:02.295Z,99.00
2019-05-20T09:20:29.902Z,99.00
2019-05-20T09:22:57.509Z,98.70
2019-05-20T09:25:31.885Z,98.90
2019-05-20T09:27:59.945Z,98.90
2019-05-20T09:30:27.504Z,98.90
2019-05-20T09:32:55.207Z,98.80
2019-05-20T09:35:23.113Z,99.20
2019-05-20T09:37:50.645Z,99.10
2019-05-20T09:40:37.684Z,99.20
2019-05-20T09:43:05.499Z,99.30
2019-05-20T09:45:33.073Z,98.90
2019-05-20T09:48:00.886Z,98.90
2019-05-20T09:50:28.498Z,98.90
2019-05-20T09:52:56.056Z,99.30
2019-05-20T09:55:23.642Z,99.60
2019-05-20T09:57:51.177Z,99.50
2019-05-20T10:00:18.740Z,99.50
2019-05-20T10:02:46.515Z,99.60
2019-05-20T10:05:14.081Z,99.30
2019-05-20T10:07:41.614Z,99.50
2019-05-20T10:10:09.360Z,99.50
2019-05-20T10:12:46.008Z,99.30
2019-05-20T10:15:06.936Z,99.60
2019-05-20T10:17:34.477Z,99.80
2019-05-20T10:20:02.046Z,99.40
2019-05-20T10:22:29.608Z,99.60
2019-05-20T10:24:57.276Z,99.50
2019-05-20T10:27:24.837Z,99.30
2019-05-20T10:29:52.672Z,99.20
2019-05-20T10:32:20.210Z,99.40
2019-05-20T10:34:47.784Z,99.20
2019-05-20T10:37:15.318Z,99.50
2019-05-20T10:39:42.880Z,99.60
2019-05-20T10:42:10.676Z,99.00
2019-05-20T10:44:41.799Z,99.10
2019-05-20T10:47:07.492Z,99.00
2019-05-20T10:49:35.293Z,99.20
2019-05-20T10:52:03.164Z,98.90
2019-05-20T10:54:30.737Z,99.20
2019-05-20T10:56:59.752Z,99.40
2019-05-20T10:59:27.616Z,99.90
2019-05-20T11:01:55.153Z,99.80
2019-05-20T11:04:22.685Z,99.80
2019-05-20T11:06:50.249Z,99.90
2019-05-20T11:09:17.781Z,99.20
2019-05-20T11:11:45.688Z,99.10
2019-05-20T11:14:13.274Z,98.90
2019-05-20T11:16:40.841Z,99.10
2019-05-20T11:19:08.377Z,98.60
2019-05-20T11:21:35.945Z,99.00
2019-05-20T11:24:03.482Z,99.20
2019-05-20T11:26:31.049Z,98.80
2019-05-20T11:28:58.628Z,98.80
2019-05-20T11:31:26.196Z,99.10
2019-05-20T11:33:57.426Z,99.00
2019-05-20T11:36:23.018Z,98.70
2019-05-20T11:38:50.556Z,98.60
2019-05-20T11:41:18.120Z,99.00
2019-05-20T11:43:45.660Z,98.70
2019-05-20T11:46:13.590Z,98.80
2019-05-20T11:48:41.127Z,99.00
2019-05-20T11:51:08.708Z,98.90
2019-05-20T11:53:36.240Z,98.80
2019-05-20T11:56:04.045Z,99.00
2019-05-20T11:58:31.616Z,98.90
2019-05-20T12:00:59.181Z,99.10
2019-05-20T12:03:26.745Z,99.00
2019-05-20T12:05:54.307Z,98.90
2019-05-20T12:08:21.939Z,98.70
2019-05-20T12:10:49.467Z,98.60
2019-05-20T12:13:17.032Z,98.70
2019-05-20T12:15:44.900Z,98.50
2019-05-20T12:18:12.465Z,98.90
2019-05-20T12:20:40.000Z,99.00
2019-05-20T12:23:07.573Z,99.30
2019-05-20T12:25:35.448Z,99.40
2019-05-20T12:28:03.010Z,99.20
2019-05-20T12:30:30.549Z,99.20
2019-05-20T12:33:17.211Z,99.30
2019-05-20T12:35:27.456Z,99.40
2019-05-20T12:37:55.036Z,99.40
2019-05-20T12:40:22.569Z,99.40
2019-05-20T12:42:50.136Z,99.10
2019-05-20T12:45:17.673Z,99.30
2019-05-20T12:47:45.509Z,99.60
2019-05-20T12:50:13.116Z,99.40
2019-05-20T12:52:40.650Z,99.40
2019-05-20T12:55:09.829Z,99.60
2019-05-20T12:57:37.469Z,99.40
2019-05-20T13:00:08.537Z,99.50
2019-05-20T13:02:36.081Z,99.60
2019-05-20T13:05:05.018Z,99.70
2019-05-20T13:07:32.549Z,99.90
2019-05-20T13:10:03.156Z,99.90
2019-05-20T13:12:29.372Z,99.90
2019-05-20T13:14:56.938Z,99.90
2019-05-20T13:17:24.567Z,99.90
2019-05-20T13:19:52.246Z,99.90
2019-05-20T13:22:19.777Z,99.90
2019-05-20T13:24:47.342Z,99.90
2019-05-20T13:27:14.885Z,99.90
2019-05-20T13:29:42.437Z,99.90
2019-05-20T13:32:10.311Z,99.90
2019-05-20T13:34:37.879Z,99.90
2019-05-20T13:37:05.422Z,99.90
2019-05-20T13:39:32.989Z,99.90
2019-05-20T13:42:00.529Z,99.90
2019-05-20T13:44:28.112Z,99.90
2019-05-20T13:46:55.625Z,99.90
2019-05-20T13:49:23.553Z,99.70
2019-05-20T13:51:51.111Z,99.90
2019-05-20T13:54:18.725Z,99.90
2019-05-20T13:56:46.285Z,99.90
2019-05-20T13:59:13.905Z,99.90
2019-05-20T14:01:41.456Z,99.90
2019-05-20T14:04:09.021Z,99.90
2019-05-20T14:06:36.568Z,99.90
2019-05-20T14:09:07.498Z,99.90
2019-05-20T14:11:35.023Z,99.80
2019-05-20T14:14:02.685Z,99.90
2019-05-20T14:16:30.482Z,99.90
2019-05-20T14:18:58.049Z,99.90
2019-05-20T14:21:25.585Z,99.90
2019-05-20T14:23:53.158Z,99.90
2019-05-20T14:26:20.693Z,99.90
2019-05-20T14:28:48.277Z,99.70
2019-05-20T14:31:15.796Z,99.90
2019-05-20T14:33:43.333Z,99.80
2019-05-20T14:36:10.992Z,99.90
2019-05-20T14:38:38.529Z,99.90
2019-05-20T14:41:20.500Z,99.90
2019-05-20T14:43:35.374Z,99.90
2019-05-20T14:46:02.938Z,99.90
2019-05-20T14:48:30.512Z,99.90
2019-05-20T14:50:58.080Z,99.90
2019-05-20T14:53:25.623Z,99.90
2019-05-20T14:55:53.183Z,99.90
2019-05-20T14:58:20.721Z,99.90
2019-05-20T15:00:48.280Z,99.90
2019-05-20T15:03:15.817Z,99.90
2019-05-20T15:05:43.385Z,99.90
2019-05-20T15:08:11.003Z,99.90
2019-05-20T15:10:38.599Z,99.90
2019-05-20T15:13:06.133Z,99.90
2019-05-20T15:15:34.379Z,99.90
2019-05-20T15:18:02.002Z,99.90
2019-05-20T15:20:29.665Z,99.90
2019-05-20T15:22:57.200Z,99.90
2019-05-20T15:25:24.784Z,99.90
2019-05-20T15:27:52.312Z,99.90
2019-05-20T15:30:19.878Z,99.90
2019-05-20T15:32:47.413Z,99.90
2019-05-20T15:35:14.974Z,99.90
2019-05-20T15:37:42.512Z,99.90
2019-05-20T15:40:10.078Z,99.90
2019-05-20T15:42:37.618Z,99.90
2019-05-20T15:45:08.089Z,99.90
2019-05-20T15:47:35.651Z,99.90
2019-05-20T15:50:06.170Z,99.90
2019-05-20T15:52:33.101Z,99.90
2019-05-20T15:55:00.693Z,99.90
2019-05-20T15:57:28.253Z,99.90
2019-05-20T15:59:55.813Z,99.90
2019-05-20T16:02:23.364Z,99.90
2019-05-20T16:04:50.929Z,99.90
2019-05-20T16:07:18.481Z,99.90
2019-05-20T16:09:46.044Z,99.90
2019-05-20T16:12:13.596Z,99.90
2019-05-20T16:14:41.150Z,99.90
2019-05-20T16:17:08.710Z,99.90
2019-05-20T16:19:36.250Z,99.50
2019-05-20T16:22:03.812Z,99.90
2019-05-20T16:24:31.435Z,99.80
2019-05-20T16:26:59.104Z,99.90
2019-05-20T16:29:26.752Z,99.90
2019-05-20T16:31:54.401Z,99.80
2019-05-20T16:34:21.932Z,99.80
2019-05-20T16:36:49.498Z,99.90
2019-05-20T16:39:17.038Z,99.90
2019-05-20T16:41:44.605Z,99.90
2019-05-20T16:44:12.386Z,99.90
2019-05-20T16:46:39.949Z,99.90
2019-05-20T16:49:07.484Z,99.90
2019-05-20T16:51:35.049Z,99.90
2019-05-20T16:54:02.605Z,99.90
2019-05-20T16:56:30.152Z,99.90
2019-05-20T16:58:57.693Z,99.90
2019-05-20T17:01:25.257Z,99.90
2019-05-20T17:03:52.792Z,99.90
2019-05-20T17:06:20.352Z,99.90
2019-05-20T17:08:47.892Z,99.90
2019-05-20T17:11:15.718Z,99.90
2019-05-20T17:13:43.283Z,99.80
2019-05-20T17:16:10.840Z,99.90
2019-05-20T17:18:38.381Z,99.80
2019-05-20T17:21:06.778Z,99.70
2019-05-20T17:23:34.304Z,99.70
2019-05-20T17:26:01.877Z,99.50
2019-05-20T17:28:29.837Z,99.70
2019-05-20T17:30:57.863Z,99.80
2019-05-20T17:33:25.401Z,99.90
2019-05-20T17:35:52.988Z,99.90
2019-05-20T17:38:20.524Z,99.90
2019-05-20T17:40:48.097Z,99.90
2019-05-20T17:43:15.939Z,99.90
2019-05-20T17:45:43.806Z,99.90
2019-05-20T17:48:11.340Z,99.90
2019-05-20T17:50:38.883Z,99.90
2019-05-20T17:53:06.490Z,99.90
2019-05-20T17:55:34.097Z,99.90
2019-05-20T17:58:01.673Z,99.90
2019-05-20T18:00:29.228Z,99.90
2019-05-20T18:02:56.825Z,99.90
2019-05-20T18:05:24.352Z,99.90
2019-05-20T18:07:51.942Z,99.90
2019-05-20T18:10:21.112Z,99.90
2019-05-20T18:12:48.728Z,99.90
2019-05-20T18:15:16.264Z,99.90
2019-05-20T18:17:43.852Z,99.90
2019-05-20T18:20:11.417Z,99.90
2019-05-20T18:22:39.022Z,99.60
2019-05-20T18:25:07.060Z,99.50
2019-05-20T18:27:34.985Z,99.90
2019-05-20T18:30:02.586Z,99.90
2019-05-20T18:32:30.338Z,99.90
2019-05-20T18:34:57.872Z,99.90
2019-05-20T18:37:25.448Z,99.90
2019-05-20T18:39:53.021Z,99.90
2019-05-20T18:42:20.600Z,99.90
2019-05-20T18:44:48.132Z,99.80
2019-05-20T18:47:16.500Z,99.70
2019-05-20T18:49:44.034Z,99.40
2019-05-20T18:52:11.636Z,99.60
2019-05-20T18:54:39.169Z,99.40
2019-05-20T18:57:06.769Z,99.40
2019-05-20T18:59:34.372Z,99.60
2019-05-20T19:02:05.375Z,99.70
2019-05-20T19:04:31.223Z,99.60
2019-05-20T19:06:58.837Z,99.30
2019-05-20T19:09:26.385Z,99.60
2019-05-20T19:11:53.921Z,99.50
2019-05-20T19:14:21.501Z,99.30
2019-05-20T19:16:49.050Z,99.50
2019-05-20T19:19:16.644Z,99.50
2019-05-20T19:21:44.172Z,99.30
2019-05-20T19:24:11.765Z,99.10
2019-05-20T19:26:39.301Z,99.20
2019-05-20T19:29:06.877Z,99.30
2019-05-20T19:31:34.426Z,99.10
2019-05-20T19:34:01.997Z,99.10
2019-05-20T19:36:29.534Z,99.20
2019-05-20T19:38:57.119Z,99.20
2019-05-20T19:41:24.974Z,99.40
2019-05-20T19:43:52.580Z,99.30
2019-05-20T19:46:20.163Z,99.30
2019-05-20T19:48:47.766Z,99.20
2019-05-20T19:51:15.322Z,99.30
2019-05-20T19:53:43.186Z,99.30
2019-05-20T19:56:10.787Z,99.40
2019-05-20T19:58:38.321Z,99.40
2019-05-20T20:01:05.897Z,99.50
2019-05-20T20:03:33.734Z,99.60
2019-05-20T20:06:01.306Z,99.30
2019-05-20T20:08:28.838Z,99.40
2019-05-20T20:10:56.400Z,99.40
2019-05-20T20:13:23.940Z,99.40
2019-05-20T20:15:51.832Z,99.30
2019-05-20T20:18:19.375Z,99.60
2019-05-20T20:20:46.932Z,99.80
2019-05-20T20:23:14.469Z,99.90
2019-05-20T20:25:42.056Z,99.90
2019-05-20T20:28:09.653Z,99.50
2019-05-20T20:30:37.216Z,99.80
2019-05-20T20:33:04.758Z,99.90
2019-05-20T20:35:38.022Z,99.90
2019-05-20T20:38:01.661Z,99.90
2019-05-20T20:40:29.225Z,99.90
2019-05-20T20:42:56.761Z,99.90
2019-05-20T20:45:24.396Z,99.50
2019-05-20T20:47:51.937Z,99.30
2019-05-20T20:50:19.552Z,99.30
2019-05-20T20:52:47.089Z,99.50
2019-05-20T20:55:14.697Z,99.50
2019-05-20T20:57:42.221Z,99.20
2019-05-20T21:00:09.984Z,98.90
2019-05-20T21:02:51.897Z,99.40
2019-05-20T21:05:07.087Z,99.50
2019-05-20T21:07:34.627Z,99.70
2019-05-20T21:10:02.756Z,99.20
2019-05-20T21:12:30.364Z,99.30
2019-05-20T21:14:57.976Z,99.80
2019-05-20T21:17:25.546Z,99.90
2019-05-20T21:19:53.405Z,99.50
2019-05-20T21:22:20.973Z,99.50
2019-05-20T21:24:48.516Z,99.90
2019-05-20T21:27:16.072Z,99.50
2019-05-20T21:29:43.617Z,99.70
2019-05-20T21:32:11.180Z,99.60
2019-05-20T21:34:38.718Z,99.40
2019-05-20T21:37:06.292Z,99.20
2019-05-20T21:39:33.829Z,99.30
2019-05-20T21:42:01.397Z,99.40
2019-05-20T21:44:28.928Z,99.40
2019-05-20T21:46:56.492Z,99.20
2019-05-20T21:49:24.033Z,99.20
2019-05-20T21:51:51.596Z,99.30
2019-05-20T21:54:19.141Z,99.40
2019-05-20T21:56:49.917Z,99.20
2019-05-20T21:59:15.964Z,99.10
2019-05-20T22:01:43.531Z,99.40
2019-05-20T22:04:11.136Z,99.70
2019-05-20T22:06:38.729Z,99.50
2019-05-20T22:09:06.265Z,99.40
2019-05-20T22:11:34.309Z,99.60
2019-05-20T22:14:02.259Z,99.50
2019-05-20T22:16:30.268Z,99.50
2019-05-20T22:18:57.805Z,99.70
2019-05-20T22:21:35.814Z,99.80
2019-05-20T22:24:05.006Z,99.80
2019-05-20T22:26:32.564Z,99.80
2019-05-20T22:29:00.096Z,99.70
2019-05-20T22:31:27.721Z,99.70
2019-05-20T22:33:55.260Z,99.80
2019-05-20T22:36:22.824Z,99.90
2019-05-20T22:38:50.367Z,99.50
2019-05-20T22:41:17.970Z,99.80
2019-05-20T22:43:45.500Z,99.60
2019-05-20T22:46:13.038Z,99.70
2019-05-20T22:48:40.604Z,99.70
2019-05-20T22:51:08.136Z,99.50
2019-05-20T22:53:35.714Z,99.50
2019-05-20T22:56:03.249Z,99.40
2019-05-20T22:58:30.829Z,99.30
2019-05-20T23:00:58.433Z,99.30
2019-05-20T23:03:25.993Z,99.40
2019-05-20T23:05:53.534Z,99.50
2019-05-20T23:08:21.129Z,99.40
2019-05-20T23:10:48.712Z,99.50
2019-05-20T23:13:16.277Z,99.60
2019-05-20T23:15:43.813Z,99.50
2019-05-20T23:18:11.376Z,99.30
2019-05-20T23:20:38.915Z,99.10
2019-05-20T23:23:06.475Z,99.40
2019-05-20T23:25:34.004Z,99.70
2019-05-20T23:28:01.570Z,99.40
2019-05-20T23:30:29.135Z,99.00
2019-05-20T23:32:56.946Z,99.30
2019-05-20T23:35:24.481Z,99.60
2019-05-20T23:37:52.311Z,99.20
2019-05-20T23:40:19.843Z,99.10
2019-05-20T23:42:47.396Z,99.20
2019-05-20T23:45:14.930Z,99.50
2019-05-20T23:47:42.513Z,99.00
2019-05-20T23:50:10.036Z,99.10
2019-05-20T23:52:37.629Z,99.00
2019-05-20T23:55:06.238Z,98.90
2019-05-20T23:57:33.808Z,98.80
